Durango-La Plata County Airport

Airport
ICAO code: 
KDRO
Summary
ICAO Region: 
NAM
Territory: 
Location: 
Durango, Colorado,
Elevation: 
6685 ft
Coordinates: 
Aerial View: 
37° 9' 39.115" N, 107° 45' 4.445" W
Airport RE: 
Hot and High Operations
Metar
Observation
KDRO 020853Z AUTO 04005KT 10SM CLR M03/M07 A3033 RMK AO2 SLP260 T10281072 53001
Station
Durango, Durango-La Plata County Airport
Date/Time
2021-12-02 08:53:00
Wind direction
40°
Wind speed
05 kts
Lowest cloud amount
n/a
Temperature
-2.8°C
Dew point
-7.2°C
Humidity
71%
Weather condition
n/a

Description

Durango–La Plata County Airport is a public airport located 16 km southeast of the central business district of Durango, a city in La Plata County, Colorado.

Climatology

Semi-arid Steppe climate (Köppen climate classification BSk) - Little precipitation, hot summers and cold winters, sometimes with large changes in temperature in a 24 hour period.

Runways

Designator Length Width Surface Rops
3/21 2804 46 ASPH-G Yes/Yes
Airport map: 
Aerial View: 

SKYbrary Partners:

Safety knowledge contributed by: